Time;durP1;ratioP1;P1;durP2;ratioP2;P2;SDS_P1;SDS_P2;PMS_P1;PMS_P2;Temp;Humidity;BMP_temperature;BMP_pressure;BME280_temperature;BME280_humidity;BME280_pressure;Samples;Min_cycle;Max_cycle;Signal;HPM_P1;HPM_P2
2022/12/22 03:27:36;;;;;;;56.90;29.48;;;8.30;99.90;;;;;;5115911;28;20121;-64
2022/12/22 03:30:03;;;;;;;56.55;31.08;;;8.30;99.90;;;;;;5096923;28;20116;-64
2022/12/22 03:32:31;;;;;;;51.70;27.05;;;8.30;99.90;;;;;;5097237;28;20059;-64
2022/12/22 03:34:58;;;;;;;54.80;27.83;;;8.30;99.90;;;;;;5115435;28;20572;-64
2022/12/22 03:37:25;;;;;;;53.45;28.27;;;8.30;99.90;;;;;;5096357;28;20040;-64
2022/12/22 03:39:52;;;;;;;54.80;29.23;;;8.30;99.90;;;;;;5096537;27;20048;-64
2022/12/22 03:47:50;;;;;;;53.35;28.20;;;8.30;99.90;;;;;;5096790;27;20186;-65
2022/12/22 03:50:17;;;;;;;54.33;27.13;;;8.30;99.90;;;;;;5096447;27;20097;-65
2022/12/22 03:52:43;;;;;;;52.45;27.33;;;8.30;99.90;;;;;;5115179;27;20120;-65
2022/12/22 03:55:11;;;;;;;48.60;27.58;;;8.30;99.90;;;;;;5127229;27;20410;-64
2022/12/22 03:57:37;;;;;;;52.63;26.80;;;8.30;99.90;;;;;;5114441;27;20043;-64
2022/12/22 04:00:06;;;;;;;51.70;27.85;;;8.30;99.90;;;;;;5115132;27;20093;-64
2022/12/22 04:02:32;;;;;;;59.60;29.08;;;8.30;99.90;;;;;;5096489;28;20116;-65
2022/12/22 04:05:01;;;;;;;60.05;30.15;;;8.30;99.90;;;;;;5114514;27;20430;-64
2022/12/22 04:07:28;;;;;;;55.80;28.98;;;8.30;99.90;;;;;;5096686;28;20503;-63
2022/12/22 04:12:57;;;;;;;61.40;29.98;;;8.30;99.90;;;;;;5096281;28;20406;-64
2022/12/22 04:15:25;;;;;;;59.35;29.27;;;8.30;99.90;;;;;;5115068;28;20052;-64
2022/12/22 04:17:53;;;;;;;60.65;29.50;;;8.40;99.90;;;;;;5114219;27;21083;-64
2022/12/22 04:20:25;;;;;;;64.95;29.70;;;8.30;99.90;;;;;;5114705;27;20141;-64
2022/12/22 04:22:52;;;;;;;66.10;32.03;;;8.30;99.90;;;;;;5096083;28;20055;-66
2022/12/22 04:25:19;;;;;;;118.07;44.58;;;8.20;99.90;;;;;;5113961;27;20125;-66
2022/12/22 04:27:46;;;;;;;75.28;34.20;;;8.30;99.90;;;;;;5096270;28;20040;-65
2022/12/22 04:30:14;;;;;;;80.18;35.30;;;8.30;99.90;;;;;;5114680;28;20426;-65
2022/12/22 04:32:41;;;;;;;74.50;34.50;;;8.30;99.90;;;;;;5113917;28;20043;-64
2022/12/22 04:35:09;;;;;;;82.47;35.63;;;8.30;99.90;;;;;;5096077;28;20122;-64
2022/12/22 04:37:38;;;;;;;72.32;31.73;;;8.20;99.90;;;;;;5096024;27;20088;-63
2022/12/22 04:40:06;;;;;;;79.82;35.50;;;8.20;99.90;;;;;;5094779;28;20069;-65
2022/12/22 04:42:33;;;;;;;107.45;39.63;;;8.20;99.90;;;;;;5095786;28;20039;-65
2022/12/22 04:44:59;;;;;;;79.07;36.78;;;8.20;99.90;;;;;;5114312;27;20040;-64
2022/12/22 04:47:26;;;;;;;83.38;35.13;;;8.30;99.90;;;;;;5095357;28;20096;-64
2022/12/22 04:49:54;;;;;;;78.93;34.95;;;8.20;99.90;;;;;;5112459;27;20424;-64
2022/12/22 04:52:21;;;;;;;64.47;30.88;;;8.20;99.90;;;;;;5095134;28;20043;-64
2022/12/22 04:54:49;;;;;;;65.78;29.98;;;8.20;99.90;;;;;;5114209;27;20502;-64
2022/12/22 04:57:16;;;;;;;66.93;30.15;;;8.20;99.90;;;;;;5113868;27;20040;-63
2022/12/22 04:59:43;;;;;;;65.18;28.75;;;8.20;99.90;;;;;;5097798;28;20052;-63
2022/12/22 05:02:10;;;;;;;72.38;29.88;;;8.20;99.90;;;;;;5098392;28;20047;-63
2022/12/22 05:04:37;;;;;;;69.97;31.02;;;8.20;99.90;;;;;;5098775;28;20536;-63
2022/12/22 05:07:06;;;;;;;60.90;27.75;;;8.10;99.90;;;;;;5097451;27;20111;-64
2022/12/22 05:09:33;;;;;;;70.82;31.45;;;8.10;99.90;;;;;;5111761;27;20511;-63
2022/12/22 05:12:53;;;;;;;68.72;28.95;;;8.20;99.90;;;;;;5111863;28;20215;-63
2022/12/22 05:14:49;;;;;;;79.13;33.20;;;8.20;99.90;;;;;;5111101;28;20047;-63
2022/12/22 05:17:16;;;;;;;70.20;31.05;;;8.10;99.90;;;;;;5099252;28;20415;-63
2022/12/22 05:19:43;;;;;;;79.53;32.03;;;8.10;99.90;;;;;;5111439;28;20055;-63
2022/12/22 05:22:10;;;;;;;68.53;31.60;;;8.10;99.90;;;;;;5096766;27;20491;-63
2022/12/22 05:24:37;;;;;;;58.97;28.02;;;8.10;99.90;;;;;;5099498;28;20518;-62
2022/12/22 05:27:05;;;;;;;67.53;27.52;;;8.10;99.90;;;;;;5103184;27;20498;-63
2022/12/22 05:29:32;;;;;;;58.38;23.73;;;8.10;99.90;;;;;;5094145;27;20437;-63
2022/12/22 05:31:59;;;;;;;53.33;24.08;;;8.10;99.90;;;;;;5096857;28;20059;-63
2022/12/22 05:34:26;;;;;;;53.70;24.90;;;8.10;99.90;;;;;;5096939;28;20055;-63
2022/12/22 05:36:53;;;;;;;51.22;23.10;;;8.10;99.90;;;;;;5110830;27;20332;-63
2022/12/22 05:39:20;;;;;;;53.53;22.50;;;8.00;99.90;;;;;;5093932;28;20048;-64
2022/12/22 05:41:47;;;;;;;43.15;20.77;;;8.00;99.90;;;;;;5092867;28;20048;-64
2022/12/22 05:44:15;;;;;;;42.25;18.80;;;8.00;99.90;;;;;;5093030;28;20055;-64
2022/12/22 05:46:42;;;;;;;38.30;17.80;;;8.00;99.90;;;;;;5111758;27;20059;-63
2022/12/22 05:49:09;;;;;;;37.80;19.05;;;8.00;99.90;;;;;;5093028;28;20517;-63
2022/12/22 05:51:36;;;;;;;37.42;17.42;;;8.00;99.90;;;;;;5111250;28;20464;-64
2022/12/22 05:54:02;;;;;;;38.35;19.48;;;8.00;99.90;;;;;;5092857;28;20066;-64
2022/12/22 05:56:29;;;;;;;41.20;19.15;;;8.00;99.90;;;;;;5093523;28;20051;-64
2022/12/22 05:58:56;;;;;;;42.00;18.10;;;7.90;99.90;;;;;;5092998;28;20097;-64
2022/12/22 06:01:24;;;;;;;45.70;19.73;;;7.90;99.90;;;;;;5092786;28;20480;-65
2022/12/22 06:03:51;;;;;;;41.92;20.33;;;7.90;99.90;;;;;;5091822;28;20059;-63
2022/12/22 06:06:18;;;;;;;44.15;20.83;;;8.00;99.90;;;;;;5111430;28;20151;-64
2022/12/22 06:08:45;;;;;;;41.08;20.10;;;7.80;99.90;;;;;;5096187;28;20043;-64
2022/12/22 06:11:16;;;;;;;41.70;21.23;;;7.70;99.90;;;;;;5093748;28;20047;-63
2022/12/22 06:13:43;;;;;;;48.85;22.33;;;7.70;99.90;;;;;;5097275;28;20131;-63
2022/12/22 06:16:10;;;;;;;49.67;21.58;;;7.60;99.90;;;;;;5115260;28;20051;-63
2022/12/22 06:18:39;;;;;;;49.63;22.27;;;7.50;99.90;;;;;;5111478;28;20050;-63
2022/12/22 06:21:06;;;;;;;52.65;23.05;;;7.40;99.90;;;;;;5100579;28;20056;-62
2022/12/22 06:23:33;;;;;;;47.95;22.30;;;7.30;99.90;;;;;;5100769;28;20058;-63
2022/12/22 06:26:01;;;;;;;48.15;22.92;;;7.20;99.90;;;;;;5114743;28;20104;-62
2022/12/22 06:28:29;;;;;;;40.33;21.33;;;7.10;99.90;;;;;;5094860;28;20048;-62
2022/12/22 06:30:56;;;;;;;44.08;21.77;;;7.00;99.90;;;;;;5095009;28;20051;-62
2022/12/22 06:33:23;;;;;;;53.78;23.77;;;6.90;99.90;;;;;;5111351;28;20081;-62
2022/12/22 06:35:51;;;;;;;55.95;23.10;;;6.80;99.90;;;;;;5110821;28;20055;-62
2022/12/22 06:38:18;;;;;;;49.33;22.90;;;6.80;99.90;;;;;;5098475;28;20048;-62
2022/12/22 06:40:46;;;;;;;52.33;24.00;;;6.70;99.90;;;;;;5099093;28;20051;-62
2022/12/22 06:43:12;;;;;;;59.00;25.67;;;6.70;99.90;;;;;;5096247;28;20055;-64
2022/12/22 06:45:41;;;;;;;64.05;25.63;;;6.60;99.90;;;;;;5096102;28;20042;-64
2022/12/22 06:48:09;;;;;;;67.47;27.02;;;6.60;99.90;;;;;;5097749;28;20491;-63
2022/12/22 06:50:36;;;;;;;77.50;28.60;;;6.50;99.90;;;;;;5097284;28;20463;-63
2022/12/22 06:53:05;;;;;;;81.72;29.00;;;6.50;99.90;;;;;;5095831;28;20070;-63
2022/12/22 06:55:32;;;;;;;65.95;25.48;;;6.40;99.90;;;;;;5093872;28;20056;-63
2022/12/22 06:57:59;;;;;;;66.55;26.90;;;6.40;99.90;;;;;;5097087;28;20048;-64
2022/12/22 07:00:26;;;;;;;65.32;26.92;;;6.40;99.90;;;;;;5109903;28;20043;-63
2022/12/22 07:02:53;;;;;;;78.13;25.77;;;6.50;99.90;;;;;;5121755;28;20047;-63
2022/12/22 07:05:20;;;;;;;76.60;30.05;;;6.60;99.90;;;;;;5113517;28;20043;-64
2022/12/22 07:07:47;;;;;;;70.45;27.92;;;6.50;99.90;;;;;;5100338;28;20055;-64
2022/12/22 07:10:15;;;;;;;67.63;26.60;;;6.60;99.90;;;;;;5114053;28;20101;-65
2022/12/22 07:12:42;;;;;;;60.33;24.77;;;6.60;99.90;;;;;;5110246;28;20048;-63
2022/12/22 07:15:09;;;;;;;62.10;25.15;;;6.70;99.90;;;;;;5093924;28;20051;-64
2022/12/22 07:17:37;;;;;;;65.40;24.83;;;6.70;99.90;;;;;;5101853;28;20093;-63
2022/12/22 07:20:04;;;;;;;59.58;23.42;;;6.70;99.90;;;;;;5119374;27;20468;-64
2022/12/22 07:22:31;;;;;;;51.15;21.98;;;6.70;99.90;;;;;;5118013;27;20048;-63
2022/12/22 07:24:58;;;;;;;50.40;21.92;;;6.70;99.90;;;;;;5101638;28;20050;-64
2022/12/22 07:27:26;;;;;;;51.15;21.75;;;6.60;99.90;;;;;;5097070;28;20121;-65
2022/12/22 07:29:53;;;;;;;46.33;20.05;;;6.60;99.90;;;;;;5114368;27;20043;-65
2022/12/22 07:32:20;;;;;;;49.05;20.77;;;6.50;99.90;;;;;;5098920;28;20457;-64
2022/12/22 07:34:47;;;;;;;45.40;19.27;;;6.40;99.90;;;;;;5099068;27;20046;-64
2022/12/22 07:37:14;;;;;;;46.38;20.75;;;6.40;99.90;;;;;;5114191;27;20560;-65
2022/12/22 07:39:41;;;;;;;37.50;18.48;;;6.40;99.90;;;;;;5101236;27;20051;-64
2022/12/22 07:44:56;;;;;;;46.58;17.92;;;6.30;99.90;;;;;;5100484;28;20058;-64
2022/12/22 07:47:23;;;;;;;37.42;16.52;;;6.30;99.90;;;;;;5095650;28;20156;-64
2022/12/22 07:52:34;;;;;;;36.63;16.77;;;6.20;99.90;;;;;;5115053;27;20443;-64
2022/12/22 07:55:01;;;;;;;46.00;17.52;;;6.20;99.90;;;;;;5134670;27;20468;-64
2022/12/22 07:57:28;;;;;;;52.25;18.63;;;6.20;99.90;;;;;;5114068;27;20043;-64
2022/12/22 07:59:56;;;;;;;34.20;14.77;;;6.20;99.90;;;;;;5109873;27;20055;-64
2022/12/22 08:02:23;;;;;;;41.47;15.73;;;6.20;99.90;;;;;;5125639;27;20429;-64
2022/12/22 08:04:50;;;;;;;45.67;17.65;;;6.20;99.90;;;;;;5120598;27;20054;-64
2022/12/22 08:07:17;;;;;;;44.22;16.52;;;6.20;99.90;;;;;;5132403;27;20066;-64
2022/12/22 08:09:44;;;;;;;37.30;14.45;;;6.10;99.90;;;;;;5114694;27;20052;-64
2022/12/22 08:12:10;;;;;;;35.38;14.45;;;6.10;99.90;;;;;;5116935;27;20055;-64
2022/12/22 08:14:37;;;;;;;37.65;15.77;;;6.10;99.90;;;;;;5114874;27;20452;-64
2022/12/22 08:17:06;;;;;;;43.88;15.80;;;6.10;99.90;;;;;;5124076;27;20050;-64
2022/12/22 08:19:32;;;;;;;40.00;18.20;;;6.20;99.90;;;;;;5096107;28;20047;-64
2022/12/22 08:22:00;;;;;;;40.42;18.63;;;6.20;99.90;;;;;;5095975;28;20043;-64
2022/12/22 08:24:26;;;;;;;49.00;20.98;;;6.10;99.90;;;;;;5095534;28;20384;-64
2022/12/22 08:26:57;;;;;;;90.43;30.42;;;6.20;99.90;;;;;;5113864;28;20054;-64
2022/12/22 08:29:29;;;;;;;72.43;28.38;;;6.20;99.90;;;;;;5096214;27;20055;-65
2022/12/22 08:31:56;;;;;;;73.07;31.55;;;6.20;99.90;;;;;;5095311;28;20048;-65
2022/12/22 08:34:24;;;;;;;81.82;31.15;;;6.20;99.90;;;;;;5125556;27;20047;-64
2022/12/22 08:36:54;;;;;;;67.30;28.20;;;6.20;99.90;;;;;;5114495;27;20054;-63
2022/12/22 08:39:23;;;;;;;65.90;27.00;;;6.20;99.90;;;;;;5132813;27;20086;-64
2022/12/22 08:41:50;;;;;;;55.97;21.08;;;6.30;99.90;;;;;;5133248;27;20272;-63
2022/12/22 08:44:18;;;;;;;76.43;22.02;;;6.20;99.90;;;;;;5114268;27;20063;-63
2022/12/22 08:46:45;;;;;;;68.50;18.98;;;6.20;99.90;;;;;;5112735;27;20075;-63
2022/12/22 08:49:12;;;;;;;55.42;15.90;;;6.20;99.90;;;;;;5114829;27;20047;-63
2022/12/22 08:51:41;;;;;;;67.57;20.20;;;6.20;99.90;;;;;;5132581;27;20051;-64
2022/12/22 08:54:08;;;;;;;70.15;18.02;;;6.20;99.90;;;;;;5112487;27;20040;-64
2022/12/22 08:56:35;;;;;;;72.35;18.08;;;6.20;99.90;;;;;;5133148;27;20050;-64
2022/12/22 08:59:04;;;;;;;70.32;18.58;;;6.20;99.90;;;;;;5129675;27;20753;-63
2022/12/22 09:01:32;;;;;;;59.00;16.65;;;6.30;99.90;;;;;;5095650;28;20090;-64
2022/12/22 09:04:00;;;;;;;61.10;13.65;;;6.20;99.90;;;;;;5095247;28;20047;-64
2022/12/22 09:06:28;;;;;;;41.30;12.60;;;6.20;99.90;;;;;;5130020;27;20047;-64
2022/12/22 09:08:57;;;;;;;47.75;14.15;;;6.30;99.90;;;;;;5118445;27;20055;-63
2022/12/22 09:11:25;;;;;;;45.08;13.20;;;6.30;99.90;;;;;;5095299;28;20058;-64
2022/12/22 09:13:53;;;;;;;37.92;12.30;;;6.20;99.90;;;;;;5094169;28;20050;-63
2022/12/22 09:16:21;;;;;;;32.05;10.65;;;6.20;99.90;;;;;;5095053;28;20040;-64
2022/12/22 09:18:48;;;;;;;23.77;10.38;;;6.20;99.90;;;;;;5094878;28;20135;-63
2022/12/22 09:21:16;;;;;;;27.88;10.63;;;6.20;99.90;;;;;;5094498;28;20074;-63
2022/12/22 09:23:43;;;;;;;28.27;12.77;;;6.20;99.90;;;;;;5131135;27;20051;-63
2022/12/22 09:26:13;;;;;;;21.85;9.82;;;6.30;99.90;;;;;;5113481;27;20043;-63
2022/12/22 09:28:40;;;;;;;;;;;6.30;99.90;;;;;;5132351;27;20047;-64
2022/12/22 09:31:07;;;;;;;28.35;10.75;;;6.30;99.90;;;;;;5111759;27;19931;-64
2022/12/22 09:33:36;;;;;;;26.52;11.70;;;6.30;99.90;;;;;;5132081;27;20053;-64
2022/12/22 09:36:07;;;;;;;27.45;12.20;;;6.40;99.90;;;;;;5132079;27;20039;-64
2022/12/22 09:38:34;;;;;;;25.40;10.73;;;6.40;99.90;;;;;;5131632;27;20088;-64
2022/12/22 09:41:07;;;;;;;16.17;8.93;;;6.40;99.90;;;;;;5131856;27;20472;-64
2022/12/22 09:43:37;;;;;;;21.73;10.32;;;6.40;99.90;;;;;;5132059;27;20107;-64
2022/12/22 09:46:04;;;;;;;21.20;9.25;;;6.40;99.90;;;;;;5112400;27;20384;-64
2022/12/22 09:48:37;;;;;;;19.10;8.45;;;6.40;99.90;;;;;;5112497;27;20096;-64
2022/12/22 09:51:04;;;;;;;21.60;10.10;;;6.40;99.90;;;;;;5132181;27;20518;-64
2022/12/22 09:53:32;;;;;;;15.48;7.85;;;6.50;99.90;;;;;;5111861;28;20131;-64
2022/12/22 09:55:59;;;;;;;17.15;8.75;;;6.60;99.90;;;;;;5112145;28;20385;-64
2022/12/22 09:58:28;;;;;;;16.35;8.57;;;6.70;99.90;;;;;;5094339;28;20043;-65
2022/12/22 10:01:06;;;;;;;17.40;8.00;;;6.80;99.90;;;;;;5094578;28;20109;-64
2022/12/22 10:03:42;;;;;;;14.18;7.38;;;6.90;99.90;;;;;;5111862;28;20123;-64
2022/12/22 10:06:13;;;;;;;15.18;8.20;;;7.00;99.90;;;;;;5095028;28;20071;-64
2022/12/22 10:08:41;;;;;;;20.45;8.02;;;7.10;99.90;;;;;;5125229;28;20039;-63
2022/12/22 10:11:12;;;;;;;20.17;7.53;;;7.20;99.90;;;;;;5093580;28;20048;-64
2022/12/22 10:13:39;;;;;;;15.35;7.53;;;7.30;99.90;;;;;;5093970;28;20491;-64
2022/12/22 10:16:21;;;;;;;16.88;8.25;;;7.40;99.90;;;;;;5093648;28;20047;-64
2022/12/22 10:19:08;;;;;;;13.65;7.00;;;7.60;99.90;;;;;;5112440;28;20089;-64
2022/12/22 10:21:35;;;;;;;11.80;7.30;;;8.00;99.90;;;;;;5093909;28;20502;-63
2022/12/22 10:24:16;;;;;;;10.95;6.55;;;8.50;99.90;;;;;;5111863;28;20047;-64
2022/12/22 10:26:43;;;;;;;13.55;6.03;;;8.80;99.90;;;;;;5128454;28;20051;-64
2022/12/22 10:29:13;;;;;;;10.27;6.15;;;8.90;99.90;;;;;;5111808;28;20167;-64
2022/12/22 10:31:58;;;;;;;15.38;6.57;;;8.90;99.90;;;;;;5125726;28;20043;-64
2022/12/22 10:34:25;;;;;;;13.85;7.03;;;8.90;99.90;;;;;;5093970;28;20066;-64
2022/12/22 10:36:56;;;;;;;11.95;6.28;;;9.00;99.90;;;;;;5093974;28;20569;-64
2022/12/22 10:39:26;;;;;;;14.27;6.47;;;9.50;99.90;;;;;;5109746;28;20495;-63
2022/12/22 10:41:56;;;;;;;14.23;6.63;;;10.20;99.90;;;;;;5112063;28;20051;-64
2022/12/22 10:44:25;;;;;;;11.07;6.25;;;10.30;99.90;;;;;;5110896;28;20048;-64
2022/12/22 10:46:56;;;;;;;8.90;5.70;;;11.00;99.90;;;;;;5123728;28;20066;-63
2022/12/22 10:49:25;;;;;;;10.93;5.70;;;12.00;99.90;;;;;;5094025;28;20663;-64
2022/12/22 10:51:55;;;;;;;15.90;6.25;;;12.30;99.90;;;;;;5115741;27;20093;-64
2022/12/22 10:54:28;;;;;;;11.55;7.05;;;12.50;99.90;;;;;;5115987;27;20505;-64
2022/12/22 10:57:20;;;;;;;12.27;6.40;;;12.00;99.90;;;;;;5116051;27;20074;-64
2022/12/22 10:59:49;;;;;;;19.48;6.80;;;11.60;99.90;;;;;;5109935;27;20047;-64
2022/12/22 11:02:30;;;;;;;12.60;5.55;;;11.70;99.90;;;;;;5116415;27;20047;-64
2022/12/22 11:05:01;;;;;;;;;;;12.10;99.90;;;;;;5098108;28;20514;-64
2022/12/22 11:07:31;;;;;;;11.23;5.90;;;13.00;99.90;;;;;;5117895;27;19927;-65
2022/12/22 11:09:58;;;;;;;12.35;5.47;;;13.90;99.90;;;;;;5115611;27;20047;-64
2022/12/22 11:12:34;;;;;;;10.20;5.68;;;14.80;99.90;;;;;;5132481;27;20047;-64
2022/12/22 11:15:08;;;;;;;9.70;4.72;;;15.30;99.90;;;;;;5097320;28;20047;-65
2022/12/22 11:17:44;;;;;;;7.13;4.63;;;16.10;99.90;;;;;;5115606;27;20578;-65
2022/12/22 11:20:40;;;;;;;8.20;4.28;;;16.40;99.90;;;;;;5115062;27;20051;-65
2022/12/22 11:23:14;;;;;;;8.00;4.25;;;17.10;99.90;;;;;;5111978;27;20055;-65
2022/12/22 11:25:55;;;;;;;7.47;3.72;;;17.10;99.90;;;;;;5109421;27;20104;-65
2022/12/22 11:28:52;;;;;;;8.38;4.03;;;17.50;99.90;;;;;;5108572;27;20052;-65
2022/12/22 11:31:32;;;;;;;10.57;3.72;;;17.10;99.90;;;;;;5091685;28;20052;-65
2022/12/22 11:34:14;;;;;;;7.10;4.63;;;16.80;99.90;;;;;;5096131;28;20039;-76
2022/12/22 11:36:58;;;;;;;8.27;3.72;;;17.30;99.90;;;;;;5094987;28;20112;-66
2022/12/22 11:39:38;;;;;;;5.80;3.63;;;16.80;99.90;;;;;;5112995;27;20075;-66
2022/12/22 11:42:18;;;;;;;6.50;4.03;;;16.90;99.90;;;;;;5094804;28;20062;-66
2022/12/22 11:44:47;;;;;;;;;;;16.80;99.90;;;;;;5097481;28;20043;-66
2022/12/22 11:47:25;;;;;;;7.28;3.47;;;17.20;99.90;;;;;;5095322;27;20009;-66
2022/12/22 11:50:06;;;;;;;7.60;3.60;;;18.00;99.90;;;;;;5114100;27;20119;-64
2022/12/22 11:52:47;;;;;;;6.78;3.30;;;18.10;99.90;;;;;;5113884;27;20040;-65
2022/12/22 11:55:24;;;;;;;5.95;3.53;;;18.00;99.90;;;;;;5113678;27;20456;-65
2022/12/22 11:58:04;;;;;;;8.55;3.42;;;18.30;99.90;;;;;;5095458;27;20054;-64
2022/12/22 12:00:40;;;;;;;8.33;3.27;;;18.10;99.90;;;;;;5094697;28;20410;-65
2022/12/22 12:03:37;;;;;;;7.60;3.63;;;18.10;99.90;;;;;;5114115;27;20050;-64
2022/12/22 12:06:37;;;;;;;7.85;3.33;;;18.00;99.90;;;;;;5122422;27;20051;-65
2022/12/22 12:09:33;;;;;;;7.25;3.70;;;18.70;99.90;;;;;;5075400;28;20475;-64
2022/12/22 12:12:06;;;;;;;8.32;3.20;;;18.10;99.90;;;;;;5094810;28;20059;-65
2022/12/22 12:14:38;;;;;;;7.72;2.88;;;18.50;99.90;;;;;;5115493;27;20051;-64
2022/12/22 12:17:18;;;;;;;9.45;3.45;;;18.30;99.80;;;;;;5112436;27;20145;-65
2022/12/22 12:19:57;;;;;;;10.93;3.53;;;18.50;99.90;;;;;;5112971;27;20036;-64
2022/12/22 12:22:42;;;;;;;5.55;2.65;;;17.90;99.90;;;;;;5113303;27;20055;-66
2022/12/22 12:25:23;;;;;;;9.18;3.50;;;18.00;99.90;;;;;;5094631;28;20056;-65
2022/12/22 12:28:03;;;;;;;11.00;3.30;;;17.40;99.90;;;;;;5095026;28;20043;-68
2022/12/22 12:30:35;;;;;;;9.73;3.33;;;16.90;99.90;;;;;;5094117;28;20437;-66
2022/12/22 12:33:09;;;;;;;7.88;2.80;;;16.00;99.90;;;;;;5113503;27;20054;-65
2022/12/22 12:35:47;;;;;;;10.32;3.20;;;15.50;99.90;;;;;;5114395;27;20047;-65
2022/12/22 12:38:24;;;;;;;9.50;3.10;;;15.40;99.90;;;;;;5113448;27;20051;-64
2022/12/22 12:40:56;;;;;;;9.07;2.92;;;15.10;99.90;;;;;;5114126;27;20043;-65
2022/12/22 12:43:23;;;;;;;9.45;3.22;;;14.60;99.90;;;;;;5095584;28;20551;-65
2022/12/22 12:45:50;;;;;;;13.00;3.40;;;14.00;99.90;;;;;;5095255;28;20105;-65
2022/12/22 12:48:36;;;;;;;7.32;2.92;;;13.50;99.90;;;;;;5100578;27;20043;-65
2022/12/22 12:51:50;;;;;;;12.43;3.20;;;13.00;99.90;;;;;;5116236;27;20051;-64
2022/12/22 12:54:40;;;;;;;7.70;2.88;;;12.40;99.90;;;;;;5047709;28;20047;-64
2022/12/22 12:57:32;;;;;;;11.27;3.17;;;11.60;99.90;;;;;;5105311;27;20131;-64
2022/12/22 13:00:00;;;;;;;10.40;2.83;;;11.20;99.90;;;;;;5125897;27;20048;-64
2022/12/22 13:02:36;;;;;;;10.93;2.90;;;11.00;99.90;;;;;;5114024;27;20050;-64
2022/12/22 13:05:26;;;;;;;8.55;3.13;;;11.30;99.90;;;;;;5113190;28;20074;-64
2022/12/22 13:08:19;;;;;;;11.25;3.90;;;11.30;99.90;;;;;;5129073;27;20039;-65
2022/12/22 13:11:20;;;;;;;17.77;3.33;;;11.30;99.90;;;;;;5113227;27;20051;-65
2022/12/22 13:13:52;;;;;;;8.43;3.33;;;11.50;99.90;;;;;;5094708;28;20430;-65
2022/12/22 13:16:28;;;;;;;14.43;3.13;;;11.30;99.90;;;;;;5113761;27;20483;-64
2022/12/22 13:18:58;;;;;;;17.52;3.47;;;11.20;99.90;;;;;;5094612;28;20054;-65
2022/12/22 13:21:29;;;;;;;10.02;3.08;;;11.00;99.90;;;;;;5113820;28;20464;-64
2022/12/22 13:24:03;;;;;;;7.82;2.90;;;10.90;99.90;;;;;;5095239;28;20080;-64
2022/12/22 13:26:35;;;;;;;10.52;3.65;;;10.70;99.90;;;;;;5112950;27;20051;-64
2022/12/22 13:29:09;;;;;;;11.18;2.90;;;10.50;99.90;;;;;;5095083;27;20473;-65
2022/12/22 13:31:41;;;;;;;10.45;2.90;;;10.30;99.90;;;;;;5095214;28;20138;-64
2022/12/22 13:34:29;;;;;;;11.50;2.97;;;10.20;99.90;;;;;;5094430;28;20134;-64
2022/12/22 13:36:58;;;;;;;10.68;3.42;;;10.00;99.90;;;;;;5095087;28;20495;-64
2022/12/22 13:39:25;;;;;;;12.50;3.35;;;9.80;99.90;;;;;;5113608;27;20051;-64
2022/12/22 13:41:54;;;;;;;8.68;3.15;;;9.60;99.90;;;;;;5112702;27;20044;-64
2022/12/22 13:44:30;;;;;;;12.27;3.15;;;9.60;99.90;;;;;;5128487;27;20043;-64
2022/12/22 13:47:03;;;;;;;14.95;4.40;;;9.50;99.90;;;;;;5094761;28;20048;-64
2022/12/22 13:49:31;;;;;;;9.60;2.88;;;9.40;99.90;;;;;;5113246;28;20055;-64
2022/12/22 13:51:59;;;;;;;8.63;3.30;;;9.40;99.90;;;;;;5094581;28;20138;-64
2022/12/22 13:54:31;;;;;;;9.48;3.97;;;9.40;99.90;;;;;;5093783;28;20051;-64
2022/12/22 13:57:01;;;;;;;13.65;3.63;;;9.80;99.90;;;;;;5113248;28;20040;-65
2022/12/22 13:59:30;;;;;;;9.07;3.60;;;9.40;99.90;;;;;;5094953;28;20411;-65
2022/12/22 14:01:59;;;;;;;11.85;3.38;;;9.40;99.90;;;;;;5094022;28;20104;-65
2022/12/22 14:04:26;;;;;;;6.82;3.03;;;9.30;99.90;;;;;;5094318;28;20100;-64
2022/12/22 14:06:54;;;;;;;9.45;3.78;;;9.20;99.90;;;;;;5112727;28;20067;-64
2022/12/22 14:09:23;;;;;;;10.27;3.65;;;9.20;99.90;;;;;;5093673;28;20491;-64
2022/12/22 14:11:54;;;;;;;8.30;3.75;;;9.20;99.90;;;;;;5113072;28;20051;-64
2022/12/22 14:14:26;;;;;;;15.70;4.55;;;9.10;99.90;;;;;;5094331;28;20407;-64
2022/12/22 14:16:55;;;;;;;8.77;3.70;;;9.10;99.90;;;;;;5107246;28;20566;-65
2022/12/22 14:19:24;;;;;;;8.52;3.10;;;9.10;99.90;;;;;;5132012;28;20039;-64
2022/12/22 14:22:03;;;;;;;8.38;3.47;;;9.00;99.90;;;;;;5112850;28;20054;-64
2022/12/22 14:24:35;;;;;;;7.27;3.70;;;9.10;99.90;;;;;;5110879;27;20048;-65
2022/12/22 14:27:02;;;;;;;13.68;3.88;;;9.10;99.90;;;;;;5136310;27;20686;-65
2022/12/22 14:29:31;;;;;;;10.77;3.83;;;9.10;99.90;;;;;;5136157;27;20046;-64
2022/12/22 14:32:01;;;;;;;11.07;3.78;;;9.10;99.90;;;;;;5116732;27;20441;-65
2022/12/22 14:34:30;;;;;;;8.95;3.22;;;9.10;99.90;;;;;;5116664;27;20426;-65
2022/12/22 14:36:57;;;;;;;8.80;3.63;;;9.10;99.90;;;;;;5116217;27;20139;-65
2022/12/22 14:39:26;;;;;;;7.53;3.17;;;9.20;99.90;;;;;;5098133;28;20067;-65
2022/12/22 14:41:55;;;;;;;6.28;3.05;;;9.10;99.90;;;;;;5097987;27;20100;-64
2022/12/22 14:44:25;;;;;;;10.07;3.00;;;9.10;99.90;;;;;;5116012;27;20051;-65
2022/12/22 14:47:14;;;;;;;11.73;2.58;;;9.00;99.90;;;;;;5098051;27;20043;-65
2022/12/22 14:49:47;;;;;;;10.45;3.17;;;9.00;99.90;;;;;;5116541;28;20131;-65
2022/12/22 14:52:21;;;;;;;10.43;3.15;;;8.90;99.90;;;;;;5115886;27;20047;-65
2022/12/22 14:54:50;;;;;;;10.13;2.90;;;8.80;99.90;;;;;;5097888;28;20043;-64
2022/12/22 14:57:25;;;;;;;9.02;2.70;;;8.70;99.90;;;;;;5097662;28;20043;-65
2022/12/22 15:00:04;;;;;;;7.57;2.58;;;8.60;99.90;;;;;;5098009;28;20093;-65
2022/12/22 15:02:35;;;;;;;5.38;2.85;;;8.60;99.90;;;;;;5098115;28;20051;-64
2022/12/22 15:05:08;;;;;;;;;;;8.50;99.90;;;;;;5115821;27;20471;-65
2022/12/22 15:07:44;;;;;;;10.02;2.72;;;8.50;99.90;;;;;;5097616;28;19920;-64
2022/12/22 15:10:11;;;;;;;8.57;2.85;;;8.40;99.90;;;;;;5097851;28;20052;-65
2022/12/22 15:12:38;;;;;;;13.85;3.00;;;8.40;99.90;;;;;;5115613;27;20044;-65
2022/12/22 15:15:12;;;;;;;9.32;2.45;;;8.30;99.90;;;;;;5097565;27;20054;-65
2022/12/22 15:17:40;;;;;;;7.65;2.45;;;8.20;99.90;;;;;;5097873;28;20055;-64
2022/12/22 15:20:16;;;;;;;7.30;2.33;;;8.20;99.90;;;;;;5115290;27;20400;-64
2022/12/22 15:22:43;;;;;;;9.43;3.05;;;8.10;99.90;;;;;;5116092;27;20093;-64
2022/12/22 15:25:13;;;;;;;10.30;4.32;;;8.10;99.90;;;;;;5097416;28;20077;-65
2022/12/22 15:27:40;;;;;;;8.75;3.53;;;8.10;99.90;;;;;;5096678;28;20047;-64
2022/12/22 15:30:08;;;;;;;12.70;5.00;;;8.10;99.90;;;;;;5115635;27;20509;-64
2022/12/22 15:32:35;;;;;;;11.20;4.53;;;8.10;99.90;;;;;;5097124;28;20506;-64
2022/12/22 15:35:09;;;;;;;7.05;3.22;;;8.10;99.90;;;;;;5097149;28;20054;-63
2022/12/22 15:37:36;;;;;;;8.13;3.38;;;8.00;99.90;;;;;;5114037;27;20638;-63
2022/12/22 15:40:03;;;;;;;9.23;3.80;;;8.00;99.90;;;;;;5095611;28;20490;-66
2022/12/22 15:42:30;;;;;;;5.75;2.97;;;7.90;99.90;;;;;;5114054;27;20499;-64
2022/12/22 15:44:57;;;;;;;13.60;4.32;;;7.90;99.90;;;;;;5106870;27;20052;-64
2022/12/22 15:47:24;;;;;;;13.93;4.68;;;7.90;99.90;;;;;;5123479;27;20047;-65
2022/12/22 15:49:51;;;;;;;8.88;3.20;;;7.90;99.90;;;;;;5105810;27;20510;-64
2022/12/22 15:52:19;;;;;;;14.25;4.68;;;7.90;99.90;;;;;;5104450;27;20081;-63
2022/12/22 15:54:46;;;;;;;11.65;3.97;;;7.80;99.90;;;;;;5122547;27;20050;-64
2022/12/22 15:57:14;;;;;;;9.57;4.03;;;7.80;99.90;;;;;;5106270;27;20095;-64
2022/12/22 15:59:40;;;;;;;11.35;4.07;;;7.80;99.90;;;;;;5105362;27;20047;-63
2022/12/22 16:02:11;;;;;;;9.70;4.32;;;7.80;99.90;;;;;;5104807;27;20055;-63
2022/12/22 16:04:38;;;;;;;;;;;7.80;99.90;;;;;;5124371;27;20079;-63
2022/12/22 16:07:05;;;;;;;11.23;4.38;;;7.80;99.90;;;;;;5105191;27;20268;-63
2022/12/22 16:09:40;;;;;;;9.75;4.80;;;7.80;99.90;;;;;;5104452;27;20055;-63
2022/12/22 16:12:12;;;;;;;11.23;5.38;;;7.80;99.90;;;;;;5105607;27;20048;-64
2022/12/22 16:14:40;;;;;;;10.38;4.80;;;7.70;99.90;;;;;;5124823;27;20115;-63
2022/12/22 16:17:16;;;;;;;11.77;5.70;;;7.70;99.90;;;;;;5104275;27;20052;-64
2022/12/22 16:19:44;;;;;;;9.68;5.05;;;7.70;99.90;;;;;;5124257;27;20457;-64
2022/12/22 16:22:11;;;;;;;12.35;5.25;;;7.70;99.90;;;;;;5122150;27;20131;-64
2022/12/22 16:24:42;;;;;;;10.00;5.25;;;7.60;99.90;;;;;;5121785;27;20042;-63
2022/12/22 16:27:11;;;;;;;9.68;4.85;;;7.60;99.90;;;;;;5124029;27;20070;-63
2022/12/22 16:29:38;;;;;;;12.80;4.53;;;7.60;99.90;;;;;;5103870;27;20503;-63
2022/12/22 16:32:16;;;;;;;10.15;4.88;;;7.60;99.90;;;;;;5102906;27;20349;-63
2022/12/22 16:34:43;;;;;;;9.15;4.72;;;7.60;99.90;;;;;;5102917;27;20491;-63
2022/12/22 16:37:10;;;;;;;8.98;5.30;;;7.50;99.90;;;;;;5107219;27;20495;-64
2022/12/22 16:39:37;;;;;;;11.45;5.32;;;7.60;99.90;;;;;;5105407;27;20056;-64
2022/12/22 16:42:06;;;;;;;11.55;4.45;;;7.50;99.90;;;;;;5114264;27;20050;-64